sensor_id;sensor_type;location;lat;lon;timestamp;P1;durP1;ratioP1;P2;durP2;ratioP2
21114;SDS011;10715;48.546;9.896;2023-05-10T00:00:12;2.97;;;2.77;;
21114;SDS011;10715;48.546;9.896;2023-05-10T00:02:38;2.23;;;2.03;;
21114;SDS011;10715;48.546;9.896;2023-05-10T00:05:05;2.63;;;2.43;;
21114;SDS011;10715;48.546;9.896;2023-05-10T00:07:31;2.33;;;2.13;;
21114;SDS011;10715;48.546;9.896;2023-05-10T00:09:57;2.60;;;1.40;;
21114;SDS011;10715;48.546;9.896;2023-05-10T00:12:23;1.50;;;1.40;;
21114;SDS011;10715;48.546;9.896;2023-05-10T00:14:49;1.73;;;1.37;;
21114;SDS011;10715;48.546;9.896;2023-05-10T00:17:14;4.90;;;1.43;;
21114;SDS011;10715;48.546;9.896;2023-05-10T00:19:40;2.40;;;1.47;;
21114;SDS011;10715;48.546;9.896;2023-05-10T00:22:06;2.13;;;1.73;;
21114;SDS011;10715;48.546;9.896;2023-05-10T00:24:31;1.87;;;1.70;;
21114;SDS011;10715;48.546;9.896;2023-05-10T00:26:57;1.83;;;1.73;;
21114;SDS011;10715;48.546;9.896;2023-05-10T00:29:23;1.33;;;1.20;;
21114;SDS011;10715;48.546;9.896;2023-05-10T00:31:49;1.10;;;0.93;;
21114;SDS011;10715;48.546;9.896;2023-05-10T00:34:14;1.20;;;0.87;;
21114;SDS011;10715;48.546;9.896;2023-05-10T00:36:40;1.07;;;0.70;;
21114;SDS011;10715;48.546;9.896;2023-05-10T00:39:06;1.20;;;0.70;;
21114;SDS011;10715;48.546;9.896;2023-05-10T00:41:32;0.90;;;0.80;;
21114;SDS011;10715;48.546;9.896;2023-05-10T00:43:58;1.37;;;0.60;;
21114;SDS011;10715;48.546;9.896;2023-05-10T00:46:24;0.90;;;0.50;;
21114;SDS011;10715;48.546;9.896;2023-05-10T00:48:50;0.90;;;0.50;;
21114;SDS011;10715;48.546;9.896;2023-05-10T00:51:16;0.80;;;0.50;;
21114;SDS011;10715;48.546;9.896;2023-05-10T00:53:43;2.30;;;1.90;;
21114;SDS011;10715;48.546;9.896;2023-05-10T00:56:10;0.83;;;0.40;;
21114;SDS011;10715;48.546;9.896;2023-05-10T00:58:37;3.47;;;0.60;;
21114;SDS011;10715;48.546;9.896;2023-05-10T01:01:03;0.90;;;0.47;;
21114;SDS011;10715;48.546;9.896;2023-05-10T01:03:31;1.10;;;0.60;;
21114;SDS011;10715;48.546;9.896;2023-05-10T01:05:57;1.10;;;0.33;;
21114;SDS011;10715;48.546;9.896;2023-05-10T01:08:23;1.40;;;0.47;;
21114;SDS011;10715;48.546;9.896;2023-05-10T01:10:50;6.53;;;0.40;;
21114;SDS011;10715;48.546;9.896;2023-05-10T01:13:23;0.77;;;0.40;;
21114;SDS011;10715;48.546;9.896;2023-05-10T01:15:56;2.70;;;0.40;;
21114;SDS011;10715;48.546;9.896;2023-05-10T01:18:22;0.70;;;0.40;;
21114;SDS011;10715;48.546;9.896;2023-05-10T01:20:48;0.90;;;0.40;;
21114;SDS011;10715;48.546;9.896;2023-05-10T01:29:11;1.70;;;0.37;;
21114;SDS011;10715;48.546;9.896;2023-05-10T01:34:36;1.33;;;0.30;;
21114;SDS011;10715;48.546;9.896;2023-05-10T01:37:26;0.90;;;0.30;;
21114;SDS011;10715;48.546;9.896;2023-05-10T01:40:10;0.77;;;0.37;;
21114;SDS011;10715;48.546;9.896;2023-05-10T01:42:58;0.83;;;0.40;;
21114;SDS011;10715;48.546;9.896;2023-05-10T01:45:50;0.50;;;0.20;;
21114;SDS011;10715;48.546;9.896;2023-05-10T01:48:20;0.57;;;0.30;;
21114;SDS011;10715;48.546;9.896;2023-05-10T01:50:52;0.60;;;0.20;;
21114;SDS011;10715;48.546;9.896;2023-05-10T01:53:18;0.60;;;0.30;;
21114;SDS011;10715;48.546;9.896;2023-05-10T01:55:47;0.50;;;0.20;;
21114;SDS011;10715;48.546;9.896;2023-05-10T01:58:20;0.67;;;0.30;;
21114;SDS011;10715;48.546;9.896;2023-05-10T02:00:50;0.60;;;0.20;;
21114;SDS011;10715;48.546;9.896;2023-05-10T02:03:20;1.17;;;0.20;;
21114;SDS011;10715;48.546;9.896;2023-05-10T02:05:48;0.50;;;0.20;;
21114;SDS011;10715;48.546;9.896;2023-05-10T02:08:16;0.60;;;0.30;;
21114;SDS011;10715;48.546;9.896;2023-05-10T02:10:42;0.50;;;0.20;;
21114;SDS011;10715;48.546;9.896;2023-05-10T02:13:11;0.50;;;0.20;;
21114;SDS011;10715;48.546;9.896;2023-05-10T02:15:39;0.90;;;0.30;;
21114;SDS011;10715;48.546;9.896;2023-05-10T02:18:06;0.50;;;0.20;;
21114;SDS011;10715;48.546;9.896;2023-05-10T02:20:34;0.50;;;0.20;;
21114;SDS011;10715;48.546;9.896;2023-05-10T02:23:00;0.40;;;0.20;;
21114;SDS011;10715;48.546;9.896;2023-05-10T02:25:28;2.13;;;0.20;;
21114;SDS011;10715;48.546;9.896;2023-05-10T02:27:55;0.80;;;0.20;;
21114;SDS011;10715;48.546;9.896;2023-05-10T02:30:22;0.70;;;0.23;;
21114;SDS011;10715;48.546;9.896;2023-05-10T02:32:49;0.50;;;0.20;;
21114;SDS011;10715;48.546;9.896;2023-05-10T02:35:16;0.50;;;0.20;;
21114;SDS011;10715;48.546;9.896;2023-05-10T02:37:42;0.60;;;0.20;;
21114;SDS011;10715;48.546;9.896;2023-05-10T02:40:10;0.80;;;0.20;;
21114;SDS011;10715;48.546;9.896;2023-05-10T02:42:37;0.50;;;0.20;;
21114;SDS011;10715;48.546;9.896;2023-05-10T02:45:07;0.60;;;0.27;;
21114;SDS011;10715;48.546;9.896;2023-05-10T02:47:36;0.50;;;0.20;;
21114;SDS011;10715;48.546;9.896;2023-05-10T02:50:02;0.50;;;0.23;;
21114;SDS011;10715;48.546;9.896;2023-05-10T02:52:29;0.73;;;0.20;;
21114;SDS011;10715;48.546;9.896;2023-05-10T02:55:01;0.50;;;0.20;;
21114;SDS011;10715;48.546;9.896;2023-05-10T02:57:31;2.93;;;0.20;;
21114;SDS011;10715;48.546;9.896;2023-05-10T02:59:58;1.07;;;0.30;;
21114;SDS011;10715;48.546;9.896;2023-05-10T03:02:25;1.13;;;0.30;;
21114;SDS011;10715;48.546;9.896;2023-05-10T03:04:51;0.50;;;0.20;;
21114;SDS011;10715;48.546;9.896;2023-05-10T03:07:17;7.53;;;0.40;;
21114;SDS011;10715;48.546;9.896;2023-05-10T03:09:46;0.80;;;0.30;;
21114;SDS011;10715;48.546;9.896;2023-05-10T03:20:50;0.70;;;0.30;;
21114;SDS011;10715;48.546;9.896;2023-05-10T03:24:06;0.60;;;0.30;;
21114;SDS011;10715;48.546;9.896;2023-05-10T03:26:20;1.30;;;0.30;;
21114;SDS011;10715;48.546;9.896;2023-05-10T03:28:50;0.53;;;0.20;;
21114;SDS011;10715;48.546;9.896;2023-05-10T03:31:18;0.80;;;0.30;;
21114;SDS011;10715;48.546;9.896;2023-05-10T03:33:51;0.53;;;0.33;;
21114;SDS011;10715;48.546;9.896;2023-05-10T03:36:17;0.70;;;0.20;;
21114;SDS011;10715;48.546;9.896;2023-05-10T03:38:44;0.63;;;0.30;;
21114;SDS011;10715;48.546;9.896;2023-05-10T03:41:09;0.60;;;0.30;;
21114;SDS011;10715;48.546;9.896;2023-05-10T03:43:36;0.60;;;0.20;;
21114;SDS011;10715;48.546;9.896;2023-05-10T03:46:05;3.40;;;0.50;;
21114;SDS011;10715;48.546;9.896;2023-05-10T03:48:31;1.50;;;0.50;;
21114;SDS011;10715;48.546;9.896;2023-05-10T03:50:58;0.70;;;0.30;;
21114;SDS011;10715;48.546;9.896;2023-05-10T03:53:24;0.90;;;0.40;;
21114;SDS011;10715;48.546;9.896;2023-05-10T03:55:49;2.80;;;0.30;;
21114;SDS011;10715;48.546;9.896;2023-05-10T03:58:15;0.60;;;0.33;;
21114;SDS011;10715;48.546;9.896;2023-05-10T04:00:41;0.57;;;0.30;;
21114;SDS011;10715;48.546;9.896;2023-05-10T04:03:10;0.70;;;0.30;;
21114;SDS011;10715;48.546;9.896;2023-05-10T04:05:38;1.00;;;0.40;;
21114;SDS011;10715;48.546;9.896;2023-05-10T04:08:04;0.70;;;0.40;;
21114;SDS011;10715;48.546;9.896;2023-05-10T04:10:30;0.70;;;0.40;;
21114;SDS011;10715;48.546;9.896;2023-05-10T04:12:57;1.10;;;0.50;;
21114;SDS011;10715;48.546;9.896;2023-05-10T04:15:23;0.50;;;0.30;;
21114;SDS011;10715;48.546;9.896;2023-05-10T04:17:48;0.87;;;0.40;;
21114;SDS011;10715;48.546;9.896;2023-05-10T04:20:15;0.70;;;0.30;;
21114;SDS011;10715;48.546;9.896;2023-05-10T04:22:41;1.80;;;0.40;;
21114;SDS011;10715;48.546;9.896;2023-05-10T04:25:06;2.40;;;0.83;;
21114;SDS011;10715;48.546;9.896;2023-05-10T04:27:32;4.70;;;0.73;;
21114;SDS011;10715;48.546;9.896;2023-05-10T04:29:58;0.67;;;0.40;;
21114;SDS011;10715;48.546;9.896;2023-05-10T04:32:24;0.60;;;0.40;;
21114;SDS011;10715;48.546;9.896;2023-05-10T04:34:50;0.90;;;0.40;;
21114;SDS011;10715;48.546;9.896;2023-05-10T04:37:16;1.30;;;0.40;;
21114;SDS011;10715;48.546;9.896;2023-05-10T04:39:42;0.80;;;0.40;;
21114;SDS011;10715;48.546;9.896;2023-05-10T04:42:08;0.80;;;0.40;;
21114;SDS011;10715;48.546;9.896;2023-05-10T04:44:34;0.67;;;0.40;;
21114;SDS011;10715;48.546;9.896;2023-05-10T04:47:00;0.70;;;0.40;;
21114;SDS011;10715;48.546;9.896;2023-05-10T04:49:27;2.00;;;0.50;;
21114;SDS011;10715;48.546;9.896;2023-05-10T04:51:53;2.93;;;0.60;;
21114;SDS011;10715;48.546;9.896;2023-05-10T04:54:19;0.60;;;0.40;;
21114;SDS011;10715;48.546;9.896;2023-05-10T04:56:45;1.90;;;0.50;;
21114;SDS011;10715;48.546;9.896;2023-05-10T04:59:10;0.83;;;0.50;;
21114;SDS011;10715;48.546;9.896;2023-05-10T05:01:36;0.60;;;0.40;;
21114;SDS011;10715;48.546;9.896;2023-05-10T05:04:02;0.60;;;0.30;;
21114;SDS011;10715;48.546;9.896;2023-05-10T05:06:28;0.90;;;0.40;;
21114;SDS011;10715;48.546;9.896;2023-05-10T05:08:53;0.57;;;0.30;;
21114;SDS011;10715;48.546;9.896;2023-05-10T05:11:19;3.37;;;0.50;;
21114;SDS011;10715;48.546;9.896;2023-05-10T05:13:46;0.70;;;0.40;;
21114;SDS011;10715;48.546;9.896;2023-05-10T05:16:11;0.80;;;0.40;;
21114;SDS011;10715;48.546;9.896;2023-05-10T05:18:37;0.83;;;0.40;;
21114;SDS011;10715;48.546;9.896;2023-05-10T05:21:03;0.80;;;0.40;;
21114;SDS011;10715;48.546;9.896;2023-05-10T05:23:38;2.67;;;0.50;;
21114;SDS011;10715;48.546;9.896;2023-05-10T05:26:03;0.53;;;0.20;;
21114;SDS011;10715;48.546;9.896;2023-05-10T05:28:29;0.80;;;0.47;;
21114;SDS011;10715;48.546;9.896;2023-05-10T05:30:57;0.87;;;0.37;;
21114;SDS011;10715;48.546;9.896;2023-05-10T05:33:23;0.70;;;0.40;;
21114;SDS011;10715;48.546;9.896;2023-05-10T05:35:49;0.50;;;0.30;;
21114;SDS011;10715;48.546;9.896;2023-05-10T05:38:16;1.77;;;0.33;;
21114;SDS011;10715;48.546;9.896;2023-05-10T05:40:42;1.00;;;0.27;;
21114;SDS011;10715;48.546;9.896;2023-05-10T05:43:08;0.60;;;0.40;;
21114;SDS011;10715;48.546;9.896;2023-05-10T05:45:34;0.70;;;0.30;;
21114;SDS011;10715;48.546;9.896;2023-05-10T05:47:59;3.23;;;0.47;;
21114;SDS011;10715;48.546;9.896;2023-05-10T05:50:25;1.93;;;0.60;;
21114;SDS011;10715;48.546;9.896;2023-05-10T05:52:51;2.10;;;0.70;;
21114;SDS011;10715;48.546;9.896;2023-05-10T05:55:16;9.83;;;0.50;;
21114;SDS011;10715;48.546;9.896;2023-05-10T05:57:42;1.47;;;0.37;;
21114;SDS011;10715;48.546;9.896;2023-05-10T06:00:08;0.60;;;0.37;;
21114;SDS011;10715;48.546;9.896;2023-05-10T06:02:34;0.60;;;0.30;;
21114;SDS011;10715;48.546;9.896;2023-05-10T06:04:59;0.87;;;0.33;;
21114;SDS011;10715;48.546;9.896;2023-05-10T06:07:25;0.70;;;0.30;;
21114;SDS011;10715;48.546;9.896;2023-05-10T06:09:51;0.50;;;0.30;;
21114;SDS011;10715;48.546;9.896;2023-05-10T06:12:16;0.70;;;0.40;;
21114;SDS011;10715;48.546;9.896;2023-05-10T06:14:42;0.50;;;0.20;;
21114;SDS011;10715;48.546;9.896;2023-05-10T06:17:08;0.73;;;0.30;;
21114;SDS011;10715;48.546;9.896;2023-05-10T06:19:34;0.60;;;0.37;;
21114;SDS011;10715;48.546;9.896;2023-05-10T06:21:59;0.50;;;0.30;;
21114;SDS011;10715;48.546;9.896;2023-05-10T06:24:25;1.63;;;0.30;;
21114;SDS011;10715;48.546;9.896;2023-05-10T06:26:52;0.83;;;0.40;;
21114;SDS011;10715;48.546;9.896;2023-05-10T06:29:17;0.70;;;0.30;;
21114;SDS011;10715;48.546;9.896;2023-05-10T06:31:43;0.83;;;0.30;;
21114;SDS011;10715;48.546;9.896;2023-05-10T06:34:09;0.60;;;0.30;;
21114;SDS011;10715;48.546;9.896;2023-05-10T06:36:36;2.03;;;0.33;;
21114;SDS011;10715;48.546;9.896;2023-05-10T06:39:02;1.47;;;0.30;;
21114;SDS011;10715;48.546;9.896;2023-05-10T06:41:28;0.50;;;0.30;;
21114;SDS011;10715;48.546;9.896;2023-05-10T06:43:53;1.50;;;0.40;;
21114;SDS011;10715;48.546;9.896;2023-05-10T06:46:20;0.60;;;0.40;;
21114;SDS011;10715;48.546;9.896;2023-05-10T06:48:46;1.73;;;0.40;;
21114;SDS011;10715;48.546;9.896;2023-05-10T06:51:11;1.00;;;0.33;;
21114;SDS011;10715;48.546;9.896;2023-05-10T06:53:37;0.80;;;0.40;;
21114;SDS011;10715;48.546;9.896;2023-05-10T06:56:03;0.57;;;0.33;;
21114;SDS011;10715;48.546;9.896;2023-05-10T06:58:29;2.07;;;0.40;;
21114;SDS011;10715;48.546;9.896;2023-05-10T07:00:54;2.70;;;0.40;;
21114;SDS011;10715;48.546;9.896;2023-05-10T07:03:27;1.07;;;0.37;;
21114;SDS011;10715;48.546;9.896;2023-05-10T07:05:53;0.73;;;0.30;;
21114;SDS011;10715;48.546;9.896;2023-05-10T07:08:20;1.57;;;0.30;;
21114;SDS011;10715;48.546;9.896;2023-05-10T07:10:45;1.37;;;0.50;;
21114;SDS011;10715;48.546;9.896;2023-05-10T07:13:11;0.90;;;0.60;;
21114;SDS011;10715;48.546;9.896;2023-05-10T07:15:37;0.80;;;0.43;;
21114;SDS011;10715;48.546;9.896;2023-05-10T07:18:02;0.80;;;0.50;;
21114;SDS011;10715;48.546;9.896;2023-05-10T07:20:29;0.70;;;0.40;;
21114;SDS011;10715;48.546;9.896;2023-05-10T07:22:55;0.70;;;0.30;;
21114;SDS011;10715;48.546;9.896;2023-05-10T07:25:20;0.60;;;0.40;;
21114;SDS011;10715;48.546;9.896;2023-05-10T07:27:46;1.23;;;0.60;;
21114;SDS011;10715;48.546;9.896;2023-05-10T07:30:13;0.80;;;0.30;;
21114;SDS011;10715;48.546;9.896;2023-05-10T07:32:39;0.80;;;0.40;;
21114;SDS011;10715;48.546;9.896;2023-05-10T07:35:06;2.30;;;0.60;;
21114;SDS011;10715;48.546;9.896;2023-05-10T07:37:33;0.60;;;0.40;;
21114;SDS011;10715;48.546;9.896;2023-05-10T07:39:58;0.80;;;0.50;;
21114;SDS011;10715;48.546;9.896;2023-05-10T07:42:24;0.70;;;0.40;;
21114;SDS011;10715;48.546;9.896;2023-05-10T07:44:50;1.17;;;0.50;;
21114;SDS011;10715;48.546;9.896;2023-05-10T07:47:16;0.80;;;0.40;;
21114;SDS011;10715;48.546;9.896;2023-05-10T07:49:41;0.90;;;0.50;;
21114;SDS011;10715;48.546;9.896;2023-05-10T07:52:08;0.70;;;0.40;;
21114;SDS011;10715;48.546;9.896;2023-05-10T07:54:34;3.57;;;0.73;;
21114;SDS011;10715;48.546;9.896;2023-05-10T07:56:59;0.70;;;0.40;;
21114;SDS011;10715;48.546;9.896;2023-05-10T07:59:25;0.93;;;0.40;;
21114;SDS011;10715;48.546;9.896;2023-05-10T08:01:51;0.97;;;0.50;;
21114;SDS011;10715;48.546;9.896;2023-05-10T08:04:17;0.93;;;0.53;;
21114;SDS011;10715;48.546;9.896;2023-05-10T08:06:42;0.90;;;0.50;;
21114;SDS011;10715;48.546;9.896;2023-05-10T08:09:08;1.00;;;0.70;;
21114;SDS011;10715;48.546;9.896;2023-05-10T08:11:34;1.00;;;0.40;;
21114;SDS011;10715;48.546;9.896;2023-05-10T08:14:01;0.80;;;0.53;;
21114;SDS011;10715;48.546;9.896;2023-05-10T08:16:26;1.57;;;0.40;;
21114;SDS011;10715;48.546;9.896;2023-05-10T08:18:52;1.80;;;0.70;;
21114;SDS011;10715;48.546;9.896;2023-05-10T08:21:20;1.03;;;0.70;;
21114;SDS011;10715;48.546;9.896;2023-05-10T08:23:45;1.33;;;1.20;;
21114;SDS011;10715;48.546;9.896;2023-05-10T08:26:11;1.77;;;1.40;;
21114;SDS011;10715;48.546;9.896;2023-05-10T08:28:37;1.00;;;0.77;;
21114;SDS011;10715;48.546;9.896;2023-05-10T08:31:03;1.97;;;1.07;;
21114;SDS011;10715;48.546;9.896;2023-05-10T08:33:30;1.00;;;0.50;;
21114;SDS011;10715;48.546;9.896;2023-05-10T08:35:56;1.20;;;0.57;;
21114;SDS011;10715;48.546;9.896;2023-05-10T08:38:22;1.00;;;0.50;;
21114;SDS011;10715;48.546;9.896;2023-05-10T08:40:47;3.73;;;0.30;;
21114;SDS011;10715;48.546;9.896;2023-05-10T08:43:15;0.80;;;0.40;;
21114;SDS011;10715;48.546;9.896;2023-05-10T08:45:42;1.00;;;0.40;;
21114;SDS011;10715;48.546;9.896;2023-05-10T08:48:12;0.70;;;0.40;;
21114;SDS011;10715;48.546;9.896;2023-05-10T08:50:39;0.93;;;0.40;;
21114;SDS011;10715;48.546;9.896;2023-05-10T08:53:09;0.90;;;0.40;;
21114;SDS011;10715;48.546;9.896;2023-05-10T08:55:36;1.03;;;0.40;;
21114;SDS011;10715;48.546;9.896;2023-05-10T08:58:03;0.87;;;0.30;;
21114;SDS011;10715;48.546;9.896;2023-05-10T09:00:30;3.97;;;0.30;;
21114;SDS011;10715;48.546;9.896;2023-05-10T09:02:57;1.70;;;0.30;;
21114;SDS011;10715;48.546;9.896;2023-05-10T09:05:24;0.60;;;0.30;;
21114;SDS011;10715;48.546;9.896;2023-05-10T09:07:50;0.50;;;0.30;;
21114;SDS011;10715;48.546;9.896;2023-05-10T09:10:15;0.50;;;0.30;;
21114;SDS011;10715;48.546;9.896;2023-05-10T09:12:41;0.80;;;0.40;;
21114;SDS011;10715;48.546;9.896;2023-05-10T09:15:10;0.50;;;0.20;;
21114;SDS011;10715;48.546;9.896;2023-05-10T09:17:37;0.50;;;0.20;;
21114;SDS011;10715;48.546;9.896;2023-05-10T09:20:05;0.60;;;0.30;;
21114;SDS011;10715;48.546;9.896;2023-05-10T09:22:32;0.50;;;0.30;;
21114;SDS011;10715;48.546;9.896;2023-05-10T09:25:06;0.50;;;0.20;;
21114;SDS011;10715;48.546;9.896;2023-05-10T09:27:33;0.50;;;0.20;;
21114;SDS011;10715;48.546;9.896;2023-05-10T09:30:00;0.60;;;0.30;;
21114;SDS011;10715;48.546;9.896;2023-05-10T09:35:08;1.13;;;0.40;;
21114;SDS011;10715;48.546;9.896;2023-05-10T09:37:45;0.60;;;0.30;;
21114;SDS011;10715;48.546;9.896;2023-05-10T09:40:15;0.80;;;0.40;;
21114;SDS011;10715;48.546;9.896;2023-05-10T09:42:50;1.30;;;0.40;;
21114;SDS011;10715;48.546;9.896;2023-05-10T09:45:16;3.00;;;0.40;;
21114;SDS011;10715;48.546;9.896;2023-05-10T09:47:42;1.93;;;0.70;;
21114;SDS011;10715;48.546;9.896;2023-05-10T09:50:07;1.00;;;0.30;;
21114;SDS011;10715;48.546;9.896;2023-05-10T09:52:53;0.50;;;0.20;;
21114;SDS011;10715;48.546;9.896;2023-05-10T09:55:23;0.60;;;0.30;;
21114;SDS011;10715;48.546;9.896;2023-05-10T09:57:58;0.80;;;0.30;;
21114;SDS011;10715;48.546;9.896;2023-05-10T10:00:25;0.60;;;0.30;;
21114;SDS011;10715;48.546;9.896;2023-05-10T10:02:58;0.53;;;0.30;;
21114;SDS011;10715;48.546;9.896;2023-05-10T10:05:31;0.50;;;0.30;;
21114;SDS011;10715;48.546;9.896;2023-05-10T10:07:58;0.77;;;0.40;;
21114;SDS011;10715;48.546;9.896;2023-05-10T10:10:26;1.03;;;0.40;;
21114;SDS011;10715;48.546;9.896;2023-05-10T10:12:52;0.60;;;0.30;;
21114;SDS011;10715;48.546;9.896;2023-05-10T10:15:20;0.50;;;0.20;;
21114;SDS011;10715;48.546;9.896;2023-05-10T10:17:46;2.23;;;0.30;;
21114;SDS011;10715;48.546;9.896;2023-05-10T10:20:14;1.17;;;0.20;;
21114;SDS011;10715;48.546;9.896;2023-05-10T10:22:40;0.60;;;0.30;;
21114;SDS011;10715;48.546;9.896;2023-05-10T10:25:07;0.50;;;0.30;;
21114;SDS011;10715;48.546;9.896;2023-05-10T10:27:36;1.00;;;0.40;;
21114;SDS011;10715;48.546;9.896;2023-05-10T10:35:17;0.67;;;0.30;;
21114;SDS011;10715;48.546;9.896;2023-05-10T10:37:44;0.60;;;0.30;;
21114;SDS011;10715;48.546;9.896;2023-05-10T10:40:32;0.70;;;0.40;;
21114;SDS011;10715;48.546;9.896;2023-05-10T10:43:20;0.70;;;0.30;;
21114;SDS011;10715;48.546;9.896;2023-05-10T10:48:40;4.20;;;0.40;;
21114;SDS011;10715;48.546;9.896;2023-05-10T10:51:07;1.57;;;0.30;;
21114;SDS011;10715;48.546;9.896;2023-05-10T10:53:32;0.57;;;0.30;;
21114;SDS011;10715;48.546;9.896;2023-05-10T10:56:04;0.70;;;0.33;;
21114;SDS011;10715;48.546;9.896;2023-05-10T10:58:34;0.50;;;0.30;;
21114;SDS011;10715;48.546;9.896;2023-05-10T11:01:11;1.00;;;0.30;;
21114;SDS011;10715;48.546;9.896;2023-05-10T11:03:41;0.77;;;0.30;;
21114;SDS011;10715;48.546;9.896;2023-05-10T11:06:32;0.60;;;0.30;;
21114;SDS011;10715;48.546;9.896;2023-05-10T11:09:11;1.10;;;0.30;;
21114;SDS011;10715;48.546;9.896;2023-05-10T11:11:53;0.60;;;0.30;;
21114;SDS011;10715;48.546;9.896;2023-05-10T11:14:21;2.73;;;0.40;;
21114;SDS011;10715;48.546;9.896;2023-05-10T11:16:50;4.43;;;0.20;;
21114;SDS011;10715;48.546;9.896;2023-05-10T11:19:16;0.60;;;0.30;;
21114;SDS011;10715;48.546;9.896;2023-05-10T11:24:31;1.73;;;0.30;;
21114;SDS011;10715;48.546;9.896;2023-05-10T11:26:56;1.67;;;0.40;;
21114;SDS011;10715;48.546;9.896;2023-05-10T11:29:22;0.60;;;0.30;;
21114;SDS011;10715;48.546;9.896;2023-05-10T11:31:51;0.50;;;0.30;;
21114;SDS011;10715;48.546;9.896;2023-05-10T11:34:26;0.60;;;0.30;;
21114;SDS011;10715;48.546;9.896;2023-05-10T11:36:55;1.33;;;0.40;;
21114;SDS011;10715;48.546;9.896;2023-05-10T11:39:25;0.80;;;0.50;;
21114;SDS011;10715;48.546;9.896;2023-05-10T11:41:52;1.23;;;0.40;;
21114;SDS011;10715;48.546;9.896;2023-05-10T11:44:18;1.33;;;0.30;;
21114;SDS011;10715;48.546;9.896;2023-05-10T11:46:44;1.27;;;0.50;;
21114;SDS011;10715;48.546;9.896;2023-05-10T11:49:10;0.70;;;0.30;;
21114;SDS011;10715;48.546;9.896;2023-05-10T11:51:36;0.53;;;0.30;;
21114;SDS011;10715;48.546;9.896;2023-05-10T11:54:06;0.70;;;0.40;;
21114;SDS011;10715;48.546;9.896;2023-05-10T11:56:34;0.70;;;0.40;;
21114;SDS011;10715;48.546;9.896;2023-05-10T11:59:00;0.70;;;0.30;;
21114;SDS011;10715;48.546;9.896;2023-05-10T12:01:27;0.60;;;0.30;;
21114;SDS011;10715;48.546;9.896;2023-05-10T12:03:54;0.80;;;0.30;;
21114;SDS011;10715;48.546;9.896;2023-05-10T12:06:25;1.00;;;0.30;;
21114;SDS011;10715;48.546;9.896;2023-05-10T12:08:56;1.13;;;0.47;;
21114;SDS011;10715;48.546;9.896;2023-05-10T12:11:26;0.60;;;0.30;;
21114;SDS011;10715;48.546;9.896;2023-05-10T12:13:53;3.27;;;0.30;;
21114;SDS011;10715;48.546;9.896;2023-05-10T12:16:24;0.53;;;0.30;;
21114;SDS011;10715;48.546;9.896;2023-05-10T12:18:51;0.80;;;0.40;;
21114;SDS011;10715;48.546;9.896;2023-05-10T12:21:18;0.60;;;0.30;;
21114;SDS011;10715;48.546;9.896;2023-05-10T12:23:46;0.83;;;0.30;;
21114;SDS011;10715;48.546;9.896;2023-05-10T12:26:13;0.73;;;0.33;;
21114;SDS011;10715;48.546;9.896;2023-05-10T12:28:39;2.20;;;0.40;;
21114;SDS011;10715;48.546;9.896;2023-05-10T12:31:06;1.20;;;0.40;;
21114;SDS011;10715;48.546;9.896;2023-05-10T12:33:44;1.90;;;0.30;;
21114;SDS011;10715;48.546;9.896;2023-05-10T12:36:14;1.03;;;0.30;;
21114;SDS011;10715;48.546;9.896;2023-05-10T12:38:44;0.50;;;0.30;;
21114;SDS011;10715;48.546;9.896;2023-05-10T12:41:14;0.57;;;0.30;;
21114;SDS011;10715;48.546;9.896;2023-05-10T12:43:41;0.50;;;0.30;;
21114;SDS011;10715;48.546;9.896;2023-05-10T12:46:16;0.80;;;0.30;;
21114;SDS011;10715;48.546;9.896;2023-05-10T12:48:43;2.10;;;0.40;;
21114;SDS011;10715;48.546;9.896;2023-05-10T12:51:11;1.67;;;0.40;;
21114;SDS011;10715;48.546;9.896;2023-05-10T12:53:38;3.00;;;2.80;;
21114;SDS011;10715;48.546;9.896;2023-05-10T12:56:04;1.10;;;0.40;;
21114;SDS011;10715;48.546;9.896;2023-05-10T12:58:30;1.57;;;0.40;;
21114;SDS011;10715;48.546;9.896;2023-05-10T13:00:57;1.63;;;0.60;;
21114;SDS011;10715;48.546;9.896;2023-05-10T13:03:23;1.23;;;1.00;;
21114;SDS011;10715;48.546;9.896;2023-05-10T13:05:49;0.70;;;0.47;;
21114;SDS011;10715;48.546;9.896;2023-05-10T13:08:15;8.33;;;0.40;;
21114;SDS011;10715;48.546;9.896;2023-05-10T13:10:41;2.23;;;0.50;;
21114;SDS011;10715;48.546;9.896;2023-05-10T13:13:06;0.70;;;0.30;;
21114;SDS011;10715;48.546;9.896;2023-05-10T13:15:33;0.60;;;0.30;;
21114;SDS011;10715;48.546;9.896;2023-05-10T13:17:59;0.80;;;0.40;;
21114;SDS011;10715;48.546;9.896;2023-05-10T13:20:25;0.60;;;0.40;;
21114;SDS011;10715;48.546;9.896;2023-05-10T13:22:52;0.80;;;0.40;;
21114;SDS011;10715;48.546;9.896;2023-05-10T13:25:17;1.07;;;0.60;;
21114;SDS011;10715;48.546;9.896;2023-05-10T13:27:43;1.10;;;0.60;;
21114;SDS011;10715;48.546;9.896;2023-05-10T13:30:09;0.90;;;0.40;;
21114;SDS011;10715;48.546;9.896;2023-05-10T13:32:36;1.93;;;0.30;;
21114;SDS011;10715;48.546;9.896;2023-05-10T13:35:02;3.33;;;0.87;;
21114;SDS011;10715;48.546;9.896;2023-05-10T13:37:29;0.60;;;0.40;;
21114;SDS011;10715;48.546;9.896;2023-05-10T13:39:55;1.10;;;0.50;;
21114;SDS011;10715;48.546;9.896;2023-05-10T13:42:21;1.20;;;0.50;;
21114;SDS011;10715;48.546;9.896;2023-05-10T13:44:48;1.33;;;0.40;;
21114;SDS011;10715;48.546;9.896;2023-05-10T13:47:14;1.07;;;0.50;;
21114;SDS011;10715;48.546;9.896;2023-05-10T13:49:39;0.77;;;0.40;;
21114;SDS011;10715;48.546;9.896;2023-05-10T13:52:05;0.87;;;0.40;;
21114;SDS011;10715;48.546;9.896;2023-05-10T13:54:37;0.70;;;0.53;;
21114;SDS011;10715;48.546;9.896;2023-05-10T13:57:03;1.53;;;0.40;;
21114;SDS011;10715;48.546;9.896;2023-05-10T13:59:29;1.20;;;0.40;;
21114;SDS011;10715;48.546;9.896;2023-05-10T14:01:58;1.00;;;0.40;;
21114;SDS011;10715;48.546;9.896;2023-05-10T14:04:24;0.90;;;0.50;;
21114;SDS011;10715;48.546;9.896;2023-05-10T14:06:50;0.60;;;0.40;;
21114;SDS011;10715;48.546;9.896;2023-05-10T14:09:17;0.90;;;0.40;;
21114;SDS011;10715;48.546;9.896;2023-05-10T14:11:43;0.93;;;0.70;;
21114;SDS011;10715;48.546;9.896;2023-05-10T14:14:10;0.90;;;0.40;;
21114;SDS011;10715;48.546;9.896;2023-05-10T14:16:36;0.80;;;0.50;;
21114;SDS011;10715;48.546;9.896;2023-05-10T14:19:02;0.90;;;0.50;;
21114;SDS011;10715;48.546;9.896;2023-05-10T14:21:27;11.00;;;7.20;;
21114;SDS011;10715;48.546;9.896;2023-05-10T14:23:55;8.97;;;8.17;;
21114;SDS011;10715;48.546;9.896;2023-05-10T14:26:21;1.70;;;1.57;;
21114;SDS011;10715;48.546;9.896;2023-05-10T14:28:47;1.17;;;0.80;;
21114;SDS011;10715;48.546;9.896;2023-05-10T14:31:13;0.83;;;0.60;;
21114;SDS011;10715;48.546;9.896;2023-05-10T14:33:39;0.90;;;0.50;;
21114;SDS011;10715;48.546;9.896;2023-05-10T14:36:05;0.70;;;0.50;;
21114;SDS011;10715;48.546;9.896;2023-05-10T14:38:32;0.70;;;0.40;;
21114;SDS011;10715;48.546;9.896;2023-05-10T14:40:58;1.57;;;0.50;;
21114;SDS011;10715;48.546;9.896;2023-05-10T14:43:23;1.27;;;0.50;;
21114;SDS011;10715;48.546;9.896;2023-05-10T14:45:49;2.50;;;0.40;;
21114;SDS011;10715;48.546;9.896;2023-05-10T14:48:15;0.80;;;0.60;;
21114;SDS011;10715;48.546;9.896;2023-05-10T14:50:42;1.00;;;0.50;;
21114;SDS011;10715;48.546;9.896;2023-05-10T14:53:08;2.60;;;1.77;;
21114;SDS011;10715;48.546;9.896;2023-05-10T14:55:34;1.50;;;0.50;;
21114;SDS011;10715;48.546;9.896;2023-05-10T14:58:01;1.17;;;0.70;;
21114;SDS011;10715;48.546;9.896;2023-05-10T15:00:28;1.00;;;0.73;;
21114;SDS011;10715;48.546;9.896;2023-05-10T15:02:54;0.93;;;0.50;;
21114;SDS011;10715;48.546;9.896;2023-05-10T15:05:20;0.80;;;0.50;;
21114;SDS011;10715;48.546;9.896;2023-05-10T15:07:46;1.83;;;0.50;;
21114;SDS011;10715;48.546;9.896;2023-05-10T15:10:11;1.80;;;0.50;;
21114;SDS011;10715;48.546;9.896;2023-05-10T15:12:38;0.80;;;0.47;;
21114;SDS011;10715;48.546;9.896;2023-05-10T15:15:04;1.57;;;0.40;;
21114;SDS011;10715;48.546;9.896;2023-05-10T15:17:31;0.70;;;0.43;;
21114;SDS011;10715;48.546;9.896;2023-05-10T15:19:57;2.50;;;0.40;;